sensor_id;sensor_type;location;lat;lon;timestamp;pressure;altitude;pressure_sealevel;temperature
64947;BMP280;51469;52.150;4.682;2023-03-21T00:01:14;101813.13;;;16.14
64947;BMP280;51469;52.150;4.682;2023-03-21T00:03:40;101814.72;;;16.15
64947;BMP280;51469;52.150;4.682;2023-03-21T00:06:10;101813.94;;;16.18
64947;BMP280;51469;52.150;4.682;2023-03-21T00:08:38;101812.75;;;16.16
64947;BMP280;51469;52.150;4.682;2023-03-21T00:11:06;101807.22;;;16.19
64947;BMP280;51469;52.150;4.682;2023-03-21T00:13:31;101811.56;;;16.13
64947;BMP280;51469;52.150;4.682;2023-03-21T00:16:09;101811.13;;;16.08
64947;BMP280;51469;52.150;4.682;2023-03-21T00:18:40;101808.31;;;16.01
64947;BMP280;51469;52.150;4.682;2023-03-21T00:21:07;101796.47;;;16.07
64947;BMP280;51469;52.150;4.682;2023-03-21T00:23:33;101798.88;;;16.05
64947;BMP280;51469;52.150;4.682;2023-03-21T00:25:59;101798.47;;;16.03
64947;BMP280;51469;52.150;4.682;2023-03-21T00:28:24;101790.97;;;16.11
64947;BMP280;51469;52.150;4.682;2023-03-21T00:30:50;101790.13;;;16.07
64947;BMP280;51469;52.150;4.682;2023-03-21T00:33:16;101790.56;;;15.98
64947;BMP280;51469;52.150;4.682;2023-03-21T00:35:46;101794.91;;;16.06
64947;BMP280;51469;52.150;4.682;2023-03-21T00:38:14;101796.47;;;16.00
64947;BMP280;51469;52.150;4.682;2023-03-21T00:40:39;101794.91;;;16.06
64947;BMP280;51469;52.150;4.682;2023-03-21T00:43:05;101785.41;;;16.04
64947;BMP280;51469;52.150;4.682;2023-03-21T00:45:30;101791.38;;;16.09
64947;BMP280;51469;52.150;4.682;2023-03-21T00:47:56;101781.50;;;16.19
64947;BMP280;51469;52.150;4.682;2023-03-21T00:50:22;101774.38;;;16.14
64947;BMP280;51469;52.150;4.682;2023-03-21T00:52:47;101779.13;;;16.24
64947;BMP280;51469;52.150;4.682;2023-03-21T00:55:14;101777.53;;;16.23
64947;BMP280;51469;52.150;4.682;2023-03-21T00:57:40;101773.59;;;16.24
64947;BMP280;51469;52.150;4.682;2023-03-21T01:00:08;101773.59;;;16.21
64947;BMP280;51469;52.150;4.682;2023-03-21T01:02:35;101764.06;;;16.11
64947;BMP280;51469;52.150;4.682;2023-03-21T01:05:02;101756.91;;;15.96
64947;BMP280;51469;52.150;4.682;2023-03-21T01:07:28;101760.91;;;16.16
64947;BMP280;51469;52.150;4.682;2023-03-21T01:09:53;101757.75;;;16.11
64947;BMP280;51469;52.150;4.682;2023-03-21T01:12:19;101749.03;;;16.05
64947;BMP280;51469;52.150;4.682;2023-03-21T01:14:44;101740.34;;;16.17
64947;BMP280;51469;52.150;4.682;2023-03-21T01:17:10;101740.31;;;16.07
64947;BMP280;51469;52.150;4.682;2023-03-21T01:19:36;101740.31;;;15.89
64947;BMP280;51469;52.150;4.682;2023-03-21T01:22:01;101741.13;;;16.07
64947;BMP280;51469;52.150;4.682;2023-03-21T01:24:26;101736.41;;;16.15
64947;BMP280;51469;52.150;4.682;2023-03-21T01:26:52;101732.44;;;16.19
64947;BMP280;51469;52.150;4.682;2023-03-21T01:29:17;101735.22;;;16.19
64947;BMP280;51469;52.150;4.682;2023-03-21T01:31:43;101725.34;;;16.15
64947;BMP280;51469;52.150;4.682;2023-03-21T01:34:08;101722.16;;;16.13
64947;BMP280;51469;52.150;4.682;2023-03-21T01:36:34;101715.84;;;16.19
64947;BMP280;51469;52.150;4.682;2023-03-21T01:38:59;101717.41;;;16.20
64947;BMP280;51469;52.150;4.682;2023-03-21T01:41:30;101723.75;;;16.24
64947;BMP280;51469;52.150;4.682;2023-03-21T01:43:55;101712.66;;;16.10
64947;BMP280;51469;52.150;4.682;2023-03-21T01:48:52;101705.53;;;16.09
64947;BMP280;51469;52.150;4.682;2023-03-21T01:51:19;101712.66;;;16.17
64947;BMP280;51469;52.150;4.682;2023-03-21T01:53:46;101711.47;;;16.11
64947;BMP280;51469;52.150;4.682;2023-03-21T01:56:32;101722.16;;;16.09
64947;BMP280;51469;52.150;4.682;2023-03-21T01:59:04;101720.56;;;16.22
64947;BMP280;51469;52.150;4.682;2023-03-21T02:01:31;101706.34;;;16.20
64947;BMP280;51469;52.150;4.682;2023-03-21T02:03:59;101707.91;;;16.28
64947;BMP280;51469;52.150;4.682;2023-03-21T02:06:39;101701.59;;;16.24
64947;BMP280;51469;52.150;4.682;2023-03-21T02:09:08;101703.19;;;16.25
64947;BMP280;51469;52.150;4.682;2023-03-21T02:11:36;101702.38;;;16.32
64947;BMP280;51469;52.150;4.682;2023-03-21T02:14:03;101692.09;;;16.25
64947;BMP280;51469;52.150;4.682;2023-03-21T02:24:26;101696.03;;;16.17
64947;BMP280;51469;52.150;4.682;2023-03-21T02:27:05;101689.72;;;16.20
64947;BMP280;51469;52.150;4.682;2023-03-21T02:38:34;101670.72;;;16.01
64947;BMP280;51469;52.150;4.682;2023-03-21T02:44:08;101665.22;;;16.08
64947;BMP280;51469;52.150;4.682;2023-03-21T02:46:41;101666.78;;;16.09
64947;BMP280;51469;52.150;4.682;2023-03-21T02:52:08;101644.63;;;16.02
64947;BMP280;51469;52.150;4.682;2023-03-21T02:54:37;101655.69;;;15.88
64947;BMP280;51469;52.150;4.682;2023-03-21T02:57:02;101642.25;;;15.90
64947;BMP280;51469;52.150;4.682;2023-03-21T02:59:29;101663.19;;;15.84
64947;BMP280;51469;52.150;4.682;2023-03-21T03:01:56;101647.00;;;15.93
64947;BMP280;51469;52.150;4.682;2023-03-21T03:04:24;101647.38;;;15.95
64947;BMP280;51469;52.150;4.682;2023-03-21T03:15:13;101640.66;;;15.96
64947;BMP280;51469;52.150;4.682;2023-03-21T03:17:49;101650.16;;;16.02
64947;BMP280;51469;52.150;4.682;2023-03-21T03:23:12;101654.13;;;15.94
64947;BMP280;51469;52.150;4.682;2023-03-21T03:28:45;101642.25;;;15.90
64947;BMP280;51469;52.150;4.682;2023-03-21T03:31:12;101639.88;;;15.89
64947;BMP280;51469;52.150;4.682;2023-03-21T03:33:43;101635.13;;;15.82
64947;BMP280;51469;52.150;4.682;2023-03-21T03:36:11;101648.56;;;15.87
64947;BMP280;51469;52.150;4.682;2023-03-21T03:38:38;101643.03;;;15.87
64947;BMP280;51469;52.150;4.682;2023-03-21T03:41:11;101634.72;;;15.91
64947;BMP280;51469;52.150;4.682;2023-03-21T03:43:47;101636.72;;;15.90
64947;BMP280;51469;52.150;4.682;2023-03-21T03:46:29;101638.25;;;15.77
64947;BMP280;51469;52.150;4.682;2023-03-21T03:49:19;101634.34;;;15.85
64947;BMP280;51469;52.150;4.682;2023-03-21T03:51:57;101639.06;;;15.85
64947;BMP280;51469;52.150;4.682;2023-03-21T03:54:44;101639.09;;;15.88
64947;BMP280;51469;52.150;4.682;2023-03-21T03:57:11;101633.53;;;15.81
64947;BMP280;51469;52.150;4.682;2023-03-21T03:59:40;101635.94;;;15.90
64947;BMP280;51469;52.150;4.682;2023-03-21T04:02:07;101634.34;;;15.89
64947;BMP280;51469;52.150;4.682;2023-03-21T04:04:33;101638.28;;;15.84
64947;BMP280;51469;52.150;4.682;2023-03-21T04:06:59;101629.56;;;15.86
64947;BMP280;51469;52.150;4.682;2023-03-21T04:09:25;101626.44;;;15.94
64947;BMP280;51469;52.150;4.682;2023-03-21T04:11:54;101634.31;;;15.92
64947;BMP280;51469;52.150;4.682;2023-03-21T04:14:20;101626.44;;;15.94
64947;BMP280;51469;52.150;4.682;2023-03-21T04:16:45;101621.69;;;15.91
64947;BMP280;51469;52.150;4.682;2023-03-21T04:19:11;101618.91;;;15.91
64947;BMP280;51469;52.150;4.682;2023-03-21T04:21:36;101617.72;;;15.92
64947;BMP280;51469;52.150;4.682;2023-03-21T04:24:02;101629.59;;;15.89
64947;BMP280;51469;52.150;4.682;2023-03-21T04:26:27;101616.16;;;15.88
64947;BMP280;51469;52.150;4.682;2023-03-21T04:28:58;101621.69;;;15.84
64947;BMP280;51469;52.150;4.682;2023-03-21T04:31:31;101616.94;;;15.81
64947;BMP280;51469;52.150;4.682;2023-03-21T04:33:58;101609.03;;;15.87
64947;BMP280;51469;52.150;4.682;2023-03-21T04:36:24;101612.97;;;15.86
64947;BMP280;51469;52.150;4.682;2023-03-21T04:38:52;101613.78;;;15.90
64947;BMP280;51469;52.150;4.682;2023-03-21T04:41:17;101616.16;;;15.88
64947;BMP280;51469;52.150;4.682;2023-03-21T04:43:43;101620.88;;;15.87
64947;BMP280;51469;52.150;4.682;2023-03-21T04:46:09;101605.06;;;15.81
64947;BMP280;51469;52.150;4.682;2023-03-21T04:48:35;101604.25;;;15.70
64947;BMP280;51469;52.150;4.682;2023-03-21T04:51:00;101603.91;;;15.82
64947;BMP280;51469;52.150;4.682;2023-03-21T04:53:25;101602.31;;;15.84
64947;BMP280;51469;52.150;4.682;2023-03-21T04:55:51;101601.50;;;15.87
64947;BMP280;51469;52.150;4.682;2023-03-21T04:58:16;101592.44;;;15.90
64947;BMP280;51469;52.150;4.682;2023-03-21T05:00:44;101595.22;;;15.83
64947;BMP280;51469;52.150;4.682;2023-03-21T05:03:10;101596.38;;;15.89
64947;BMP280;51469;52.150;4.682;2023-03-21T05:05:44;101593.63;;;15.89
64947;BMP280;51469;52.150;4.682;2023-03-21T05:08:10;101594.81;;;15.88
64947;BMP280;51469;52.150;4.682;2023-03-21T05:10:35;101584.13;;;15.87
64947;BMP280;51469;52.150;4.682;2023-03-21T05:13:00;101586.50;;;15.88
64947;BMP280;51469;52.150;4.682;2023-03-21T05:15:26;101583.34;;;15.86
64947;BMP280;51469;52.150;4.682;2023-03-21T05:17:51;101584.53;;;15.85
64947;BMP280;51469;52.150;4.682;2023-03-21T05:20:16;101582.16;;;15.80
64947;BMP280;51469;52.150;4.682;2023-03-21T05:22:43;101588.06;;;15.86
64947;BMP280;51469;52.150;4.682;2023-03-21T05:25:11;101593.22;;;15.87
64947;BMP280;51469;52.150;4.682;2023-03-21T05:27:38;101584.13;;;15.83
64947;BMP280;51469;52.150;4.682;2023-03-21T05:30:12;101586.09;;;15.86
64947;BMP280;51469;52.150;4.682;2023-03-21T05:32:37;101589.69;;;15.83
64947;BMP280;51469;52.150;4.682;2023-03-21T05:35:03;101582.16;;;15.80
64947;BMP280;51469;52.150;4.682;2023-03-21T05:37:29;101582.91;;;15.81
64947;BMP280;51469;52.150;4.682;2023-03-21T05:39:55;101581.34;;;15.76
64947;BMP280;51469;52.150;4.682;2023-03-21T05:42:20;101585.34;;;15.79
64947;BMP280;51469;52.150;4.682;2023-03-21T05:44:46;101585.31;;;15.82
64947;BMP280;51469;52.150;4.682;2023-03-21T05:47:12;101590.06;;;15.82
64947;BMP280;51469;52.150;4.682;2023-03-21T05:49:38;101588.50;;;15.84
64947;BMP280;51469;52.150;4.682;2023-03-21T05:52:04;101579.00;;;15.82
64947;BMP280;51469;52.150;4.682;2023-03-21T05:54:30;101586.09;;;15.83
64947;BMP280;51469;52.150;4.682;2023-03-21T05:56:55;101580.97;;;15.85
64947;BMP280;51469;52.150;4.682;2023-03-21T05:59:20;101590.84;;;15.89
64947;BMP280;51469;52.150;4.682;2023-03-21T06:01:46;101578.97;;;15.89
64947;BMP280;51469;52.150;4.682;2023-03-21T06:04:11;101582.94;;;15.91
64947;BMP280;51469;52.150;4.682;2023-03-21T06:06:36;101584.91;;;15.87
64947;BMP280;51469;52.150;4.682;2023-03-21T06:09:02;101587.28;;;15.85
64947;BMP280;51469;52.150;4.682;2023-03-21T06:11:30;101581.34;;;15.94
64947;BMP280;51469;52.150;4.682;2023-03-21T06:13:56;101585.72;;;15.98
64947;BMP280;51469;52.150;4.682;2023-03-21T06:16:22;101590.84;;;15.96
64947;BMP280;51469;52.150;4.682;2023-03-21T06:18:47;101579.38;;;15.94
64947;BMP280;51469;52.150;4.682;2023-03-21T06:21:12;101591.25;;;15.98
64947;BMP280;51469;52.150;4.682;2023-03-21T06:23:38;101583.72;;;15.95
64947;BMP280;51469;52.150;4.682;2023-03-21T06:26:04;101590.84;;;15.96
64947;BMP280;51469;52.150;4.682;2023-03-21T06:28:30;101594.03;;;15.98
64947;BMP280;51469;52.150;4.682;2023-03-21T06:30:55;101595.59;;;16.03
64947;BMP280;51469;52.150;4.682;2023-03-21T06:33:20;101589.25;;;15.99
64947;BMP280;51469;52.150;4.682;2023-03-21T06:35:53;101594.03;;;15.98
64947;BMP280;51469;52.150;4.682;2023-03-21T06:38:19;101593.22;;;16.01
64947;BMP280;51469;52.150;4.682;2023-03-21T06:40:45;101587.69;;;16.01
64947;BMP280;51469;52.150;4.682;2023-03-21T06:43:11;101584.50;;;16.06
64947;BMP280;51469;52.150;4.682;2023-03-21T06:45:36;101591.63;;;16.07
64947;BMP280;51469;52.150;4.682;2023-03-21T06:48:02;101584.91;;;16.01
64947;BMP280;51469;52.150;4.682;2023-03-21T06:50:27;101585.72;;;16.05
64947;BMP280;51469;52.150;4.682;2023-03-21T06:52:52;101582.16;;;15.98
64947;BMP280;51469;52.150;4.682;2023-03-21T06:55:18;101577.81;;;15.97
64947;BMP280;51469;52.150;4.682;2023-03-21T06:57:47;101583.72;;;16.02
64947;BMP280;51469;52.150;4.682;2023-03-21T07:00:12;101578.59;;;16.04
64947;BMP280;51469;52.150;4.682;2023-03-21T07:02:38;101586.09;;;16.04
64947;BMP280;51469;52.150;4.682;2023-03-21T07:05:03;101565.16;;;16.03
64947;BMP280;51469;52.150;4.682;2023-03-21T07:07:29;101560.00;;;16.01
64947;BMP280;51469;52.150;4.682;2023-03-21T07:09:54;101567.13;;;15.92
64947;BMP280;51469;52.150;4.682;2023-03-21T07:12:21;101567.91;;;15.92
64947;BMP280;51469;52.150;4.682;2023-03-21T07:14:47;101571.06;;;15.87
64947;BMP280;51469;52.150;4.682;2023-03-21T07:17:12;101557.63;;;15.86
64947;BMP280;51469;52.150;4.682;2023-03-21T07:19:37;101554.88;;;15.82
64947;BMP280;51469;52.150;4.682;2023-03-21T07:22:03;101549.75;;;15.84
64947;BMP280;51469;52.150;4.682;2023-03-21T07:24:29;101553.69;;;15.83
64947;BMP280;51469;52.150;4.682;2023-03-21T07:26:54;101541.81;;;15.79
64947;BMP280;51469;52.150;4.682;2023-03-21T07:29:20;101550.13;;;15.86
64947;BMP280;51469;52.150;4.682;2023-03-21T07:31:47;101554.47;;;15.80
64947;BMP280;51469;52.150;4.682;2023-03-21T07:34:13;101558.41;;;15.79
64947;BMP280;51469;52.150;4.682;2023-03-21T07:36:40;101549.75;;;15.84
64947;BMP280;51469;52.150;4.682;2023-03-21T07:39:06;101550.53;;;15.88
64947;BMP280;51469;52.150;4.682;2023-03-21T07:41:31;101552.91;;;15.97
64947;BMP280;51469;52.150;4.682;2023-03-21T07:43:57;101548.13;;;15.97
64947;BMP280;51469;52.150;4.682;2023-03-21T07:46:22;101549.72;;;16.02
64947;BMP280;51469;52.150;4.682;2023-03-21T07:48:47;101545.00;;;15.88
64947;BMP280;51469;52.150;4.682;2023-03-21T07:51:13;101538.69;;;15.95
64947;BMP280;51469;52.150;4.682;2023-03-21T07:53:38;101531.16;;;15.88
64947;BMP280;51469;52.150;4.682;2023-03-21T07:56:06;101546.59;;;16.00
64947;BMP280;51469;52.150;4.682;2023-03-21T07:58:32;101539.44;;;16.02
64947;BMP280;51469;52.150;4.682;2023-03-21T08:00:59;101537.88;;;15.94
64947;BMP280;51469;52.150;4.682;2023-03-21T08:03:26;101542.63;;;16.04
64947;BMP280;51469;52.150;4.682;2023-03-21T08:05:53;101539.44;;;16.02
64947;BMP280;51469;52.150;4.682;2023-03-21T08:08:19;101534.69;;;16.06
64947;BMP280;51469;52.150;4.682;2023-03-21T08:10:44;101527.56;;;16.12
64947;BMP280;51469;52.150;4.682;2023-03-21T08:13:10;101520.44;;;16.11
64947;BMP280;51469;52.150;4.682;2023-03-21T08:15:35;101516.91;;;16.14
64947;BMP280;51469;52.150;4.682;2023-03-21T08:18:01;101519.63;;;16.21
64947;BMP280;51469;52.150;4.682;2023-03-21T08:20:27;101520.41;;;16.32
64947;BMP280;51469;52.150;4.682;2023-03-21T08:22:53;101511.72;;;16.30
64947;BMP280;51469;52.150;4.682;2023-03-21T08:25:20;101513.25;;;16.38
64947;BMP280;51469;52.150;4.682;2023-03-21T08:27:46;101513.25;;;16.45
64947;BMP280;51469;52.150;4.682;2023-03-21T08:30:15;101512.84;;;16.43
64947;BMP280;51469;52.150;4.682;2023-03-21T08:32:41;101491.88;;;16.49
64947;BMP280;51469;52.150;4.682;2023-03-21T08:35:08;101507.28;;;16.50
64947;BMP280;51469;52.150;4.682;2023-03-21T08:37:38;101507.19;;;16.71
64947;BMP280;51469;52.150;4.682;2023-03-21T08:40:05;101501.94;;;16.91
64947;BMP280;51469;52.150;4.682;2023-03-21T08:42:36;101494.09;;;16.82
64947;BMP280;51469;52.150;4.682;2023-03-21T08:45:02;101494.44;;;16.91
64947;BMP280;51469;52.150;4.682;2023-03-21T08:47:29;101487.75;;;16.85
64947;BMP280;51469;52.150;4.682;2023-03-21T08:49:55;101479.81;;;16.87
64947;BMP280;51469;52.150;4.682;2023-03-21T08:52:20;101498.19;;;17.22
64947;BMP280;51469;52.150;4.682;2023-03-21T08:54:46;101496.84;;;17.40
64947;BMP280;51469;52.150;4.682;2023-03-21T08:57:12;101488.03;;;17.52
64947;BMP280;51469;52.150;4.682;2023-03-21T08:59:39;101476.81;;;17.66
64947;BMP280;51469;52.150;4.682;2023-03-21T09:02:05;101470.81;;;17.71
64947;BMP280;51469;52.150;4.682;2023-03-21T09:04:31;101473.81;;;17.90
64947;BMP280;51469;52.150;4.682;2023-03-21T09:06:56;101475.66;;;18.04
64947;BMP280;51469;52.150;4.682;2023-03-21T09:09:26;101476.03;;;18.02
64947;BMP280;51469;52.150;4.682;2023-03-21T09:11:52;101474.13;;;17.96
64947;BMP280;51469;52.150;4.682;2023-03-21T09:14:17;101473.31;;;17.99
64947;BMP280;51469;52.150;4.682;2023-03-21T09:16:42;101463.78;;;18.00
64947;BMP280;51469;52.150;4.682;2023-03-21T09:19:08;101461.00;;;18.00
64947;BMP280;51469;52.150;4.682;2023-03-21T09:21:33;101457.81;;;17.98
64947;BMP280;51469;52.150;4.682;2023-03-21T09:24:00;101446.63;;;18.08
64947;BMP280;51469;52.150;4.682;2023-03-21T09:26:27;101448.50;;;18.18
64947;BMP280;51469;52.150;4.682;2023-03-21T09:28:54;101452.50;;;18.14
64947;BMP280;51469;52.150;4.682;2023-03-21T09:31:20;101453.34;;;18.11
64947;BMP280;51469;52.150;4.682;2023-03-21T09:33:50;101447.78;;;18.11
64947;BMP280;51469;52.150;4.682;2023-03-21T09:36:17;101454.00;;;18.22
64947;BMP280;51469;52.150;4.682;2023-03-21T09:38:45;101451.69;;;18.17
64947;BMP280;51469;52.150;4.682;2023-03-21T09:46:43;101453.34;;;18.07
64947;BMP280;51469;52.150;4.682;2023-03-21T09:51:44;101449.34;;;18.15
64947;BMP280;51469;52.150;4.682;2023-03-21T09:54:18;101441.31;;;18.21
64947;BMP280;51469;52.150;4.682;2023-03-21T09:56:45;101458.63;;;18.02
64947;BMP280;51469;52.150;4.682;2023-03-21T09:59:22;101445.56;;;17.99
64947;BMP280;51469;52.150;4.682;2023-03-21T10:01:51;101442.97;;;18.15
64947;BMP280;51469;52.150;4.682;2023-03-21T10:04:17;101443.44;;;18.10
64947;BMP280;51469;52.150;4.682;2023-03-21T10:06:49;101442.84;;;18.25
64947;BMP280;51469;52.150;4.682;2023-03-21T10:09:19;101452.25;;;18.35
64947;BMP280;51469;52.150;4.682;2023-03-21T10:11:54;101453.63;;;18.50
64947;BMP280;51469;52.150;4.682;2023-03-21T10:14:30;101441.22;;;18.58
64947;BMP280;51469;52.150;4.682;2023-03-21T10:17:08;101449.44;;;18.65
64947;BMP280;51469;52.150;4.682;2023-03-21T10:19:37;101431.66;;;18.59
64947;BMP280;51469;52.150;4.682;2023-03-21T10:22:02;101433.16;;;18.63
64947;BMP280;51469;52.150;4.682;2023-03-21T10:24:28;101433.31;;;18.83
64947;BMP280;51469;52.150;4.682;2023-03-21T10:26:56;101454.81;;;18.79
64947;BMP280;51469;52.150;4.682;2023-03-21T10:29:25;101450.25;;;18.65
64947;BMP280;51469;52.150;4.682;2023-03-21T10:31:51;101455.16;;;18.54
64947;BMP280;51469;52.150;4.682;2023-03-21T10:34:25;101452.47;;;18.47
64947;BMP280;51469;52.150;4.682;2023-03-21T10:36:52;101450.50;;;18.48
64947;BMP280;51469;52.150;4.682;2023-03-21T10:39:33;101456.06;;;18.48
64947;BMP280;51469;52.150;4.682;2023-03-21T10:42:00;101445.66;;;18.52
64947;BMP280;51469;52.150;4.682;2023-03-21T10:44:30;101450.84;;;18.50
64947;BMP280;51469;52.150;4.682;2023-03-21T10:46:58;101447.78;;;18.41
64947;BMP280;51469;52.150;4.682;2023-03-21T10:49:29;101456.72;;;18.25
64947;BMP280;51469;52.150;4.682;2023-03-21T10:52:02;101454.69;;;18.29
64947;BMP280;51469;52.150;4.682;2023-03-21T10:54:31;101446.47;;;18.49
64947;BMP280;51469;52.150;4.682;2023-03-21T10:57:04;101444.94;;;18.48
64947;BMP280;51469;52.150;4.682;2023-03-21T10:59:48;101440.47;;;18.54
64947;BMP280;51469;52.150;4.682;2023-03-21T11:02:27;101414.50;;;18.64
64947;BMP280;51469;52.150;4.682;2023-03-21T11:04:54;101434.09;;;18.57
64947;BMP280;51469;52.150;4.682;2023-03-21T11:07:20;101413.81;;;18.60
64947;BMP280;51469;52.150;4.682;2023-03-21T11:09:54;101418.50;;;18.63
64947;BMP280;51469;52.150;4.682;2023-03-21T11:12:37;101408.59;;;18.62
64947;BMP280;51469;52.150;4.682;2023-03-21T11:15:27;101421.66;;;18.65
64947;BMP280;51469;52.150;4.682;2023-03-21T11:17:53;101399.81;;;18.63
64947;BMP280;51469;52.150;4.682;2023-03-21T11:20:19;101405.66;;;18.72
64947;BMP280;51469;52.150;4.682;2023-03-21T11:22:45;101413.00;;;18.59
64947;BMP280;51469;52.150;4.682;2023-03-21T11:27:52;101405.38;;;19.36
64947;BMP280;51469;52.150;4.682;2023-03-21T11:30:24;101416.97;;;19.54
64947;BMP280;51469;52.150;4.682;2023-03-21T11:32:55;101412.38;;;19.67
64947;BMP280;51469;52.150;4.682;2023-03-21T11:35:24;101424.44;;;19.80
64947;BMP280;51469;52.150;4.682;2023-03-21T11:37:54;101430.34;;;19.82
64947;BMP280;51469;52.150;4.682;2023-03-21T11:40:32;101432.28;;;19.85
64947;BMP280;51469;52.150;4.682;2023-03-21T11:43:00;101433.03;;;19.66
64947;BMP280;51469;52.150;4.682;2023-03-21T11:45:31;101427.56;;;19.62
64947;BMP280;51469;52.150;4.682;2023-03-21T11:47:59;101429.66;;;19.55
64947;BMP280;51469;52.150;4.682;2023-03-21T11:50:39;101418.81;;;19.41
64947;BMP280;51469;52.150;4.682;2023-03-21T11:53:14;101419.94;;;19.24
64947;BMP280;51469;52.150;4.682;2023-03-21T11:55:44;101403.47;;;19.10
64947;BMP280;51469;52.150;4.682;2023-03-21T11:58:18;101403.47;;;19.33
64947;BMP280;51469;52.150;4.682;2023-03-21T12:00:56;101404.75;;;19.48
64947;BMP280;51469;52.150;4.682;2023-03-21T12:03:45;101400.69;;;19.33
64947;BMP280;51469;52.150;4.682;2023-03-21T12:06:18;101396.69;;;19.34
64947;BMP280;51469;52.150;4.682;2023-03-21T12:08:57;101398.78;;;19.26
64947;BMP280;51469;52.150;4.682;2023-03-21T12:22:39;101379.34;;;20.72
64947;BMP280;51469;52.150;4.682;2023-03-21T12:25:14;101365.56;;;20.97
64947;BMP280;51469;52.150;4.682;2023-03-21T12:38:57;101356.84;;;21.11
64947;BMP280;51469;52.150;4.682;2023-03-21T12:44:25;101358.59;;;20.73
64947;BMP280;51469;52.150;4.682;2023-03-21T12:49:48;101353.31;;;20.62
64947;BMP280;51469;52.150;4.682;2023-03-21T12:52:23;101352.53;;;20.62
64947;BMP280;51469;52.150;4.682;2023-03-21T12:54:56;101346.06;;;20.49
64947;BMP280;51469;52.150;4.682;2023-03-21T12:57:36;101342.41;;;20.52
64947;BMP280;51469;52.150;4.682;2023-03-21T13:00:05;101345.56;;;20.54
64947;BMP280;51469;52.150;4.682;2023-03-21T13:02:56;101340.50;;;20.49
64947;BMP280;51469;52.150;4.682;2023-03-21T13:05:29;101332.50;;;20.51
64947;BMP280;51469;52.150;4.682;2023-03-21T13:08:08;101331.50;;;20.41
64947;BMP280;51469;52.150;4.682;2023-03-21T13:10:38;101337.88;;;20.42
64947;BMP280;51469;52.150;4.682;2023-03-21T13:13:30;101332.44;;;20.35
64947;BMP280;51469;52.150;4.682;2023-03-21T13:16:18;101334.72;;;20.40
64947;BMP280;51469;52.150;4.682;2023-03-21T13:18:58;101323.41;;;20.31
64947;BMP280;51469;52.150;4.682;2023-03-21T13:27:30;101323.41;;;20.31
64947;BMP280;51469;52.150;4.682;2023-03-21T13:30:18;101317.13;;;20.27
64947;BMP280;51469;52.150;4.682;2023-03-21T13:32:47;101313.13;;;20.44
64947;BMP280;51469;52.150;4.682;2023-03-21T13:37:51;101311.03;;;20.64
64947;BMP280;51469;52.150;4.682;2023-03-21T13:40:27;101309.63;;;20.56
64947;BMP280;51469;52.150;4.682;2023-03-21T13:42:58;101308.09;;;20.55
64947;BMP280;51469;52.150;4.682;2023-03-21T13:45:30;101304.84;;;20.56
64947;BMP280;51469;52.150;4.682;2023-03-21T13:48:04;101308.97;;;20.36
64947;BMP280;51469;52.150;4.682;2023-03-21T13:51:21;101312.94;;;20.35
64947;BMP280;51469;52.150;4.682;2023-03-21T13:53:23;101309.66;;;20.24
64947;BMP280;51469;52.150;4.682;2023-03-21T13:56:00;101305.59;;;19.93
64947;BMP280;51469;52.150;4.682;2023-03-21T13:58:36;101295.88;;;20.01
64947;BMP280;51469;52.150;4.682;2023-03-21T14:03:46;101290.91;;;19.73
64947;BMP280;51469;52.150;4.682;2023-03-21T14:06:12;101297.53;;;19.79
64947;BMP280;51469;52.150;4.682;2023-03-21T14:08:40;101286.66;;;19.84
64947;BMP280;51469;52.150;4.682;2023-03-21T14:11:11;101300.06;;;19.54
64947;BMP280;51469;52.150;4.682;2023-03-21T14:13:40;101288.44;;;19.39
64947;BMP280;51469;52.150;4.682;2023-03-21T14:16:09;101294.50;;;19.54
64947;BMP280;51469;52.150;4.682;2023-03-21T14:18:59;101284.72;;;19.65
64947;BMP280;51469;52.150;4.682;2023-03-21T14:21:28;101284.59;;;19.53
64947;BMP280;51469;52.150;4.682;2023-03-21T14:24:05;101289.78;;;19.51
64947;BMP280;51469;52.150;4.682;2023-03-21T14:26:42;101284.94;;;19.55
64947;BMP280;51469;52.150;4.682;2023-03-21T14:29:15;101287.78;;;19.71
64947;BMP280;51469;52.150;4.682;2023-03-21T14:31:44;101291.53;;;19.45
64947;BMP280;51469;52.150;4.682;2023-03-21T14:34:12;101287.44;;;19.10
64947;BMP280;51469;52.150;4.682;2023-03-21T14:36:39;101296.97;;;19.09
64947;BMP280;51469;52.150;4.682;2023-03-21T14:39:19;101283.59;;;19.24
64947;BMP280;51469;52.150;4.682;2023-03-21T14:44:26;101296.16;;;19.32
64947;BMP280;51469;52.150;4.682;2023-03-21T14:47:06;101291.09;;;19.27
64947;BMP280;51469;52.150;4.682;2023-03-21T14:49:36;101288.94;;;19.15
64947;BMP280;51469;52.150;4.682;2023-03-21T14:52:25;101279.09;;;19.30
64947;BMP280;51469;52.150;4.682;2023-03-21T14:54:51;101278.25;;;19.33
64947;BMP280;51469;52.150;4.682;2023-03-21T14:57:22;101279.59;;;19.44
64947;BMP280;51469;52.150;4.682;2023-03-21T14:59:51;101274.03;;;19.44
64947;BMP280;51469;52.150;4.682;2023-03-21T15:02:36;101274.41;;;19.27
64947;BMP280;51469;52.150;4.682;2023-03-21T15:05:18;101261.66;;;19.26
64947;BMP280;51469;52.150;4.682;2023-03-21T15:07:52;101271.75;;;19.20
64947;BMP280;51469;52.150;4.682;2023-03-21T15:10:20;101276.19;;;19.17
64947;BMP280;51469;52.150;4.682;2023-03-21T15:12:55;101266.69;;;19.15
64947;BMP280;51469;52.150;4.682;2023-03-21T15:15:23;101279.16;;;19.26
64947;BMP280;51469;52.150;4.682;2023-03-21T15:17:49;101279.59;;;19.25
64947;BMP280;51469;52.150;4.682;2023-03-21T15:20:17;101291.06;;;19.07
64947;BMP280;51469;52.150;4.682;2023-03-21T15:22:53;101277.91;;;19.08
64947;BMP280;51469;52.150;4.682;2023-03-21T15:25:27;101288.13;;;19.14
64947;BMP280;51469;52.150;4.682;2023-03-21T15:27:54;101278.84;;;19.01
64947;BMP280;51469;52.150;4.682;2023-03-21T15:30:23;101283.25;;;18.99
64947;BMP280;51469;52.150;4.682;2023-03-21T15:32:49;101286.72;;;19.06
64947;BMP280;51469;52.150;4.682;2023-03-21T15:35:20;101279.22;;;19.23
64947;BMP280;51469;52.150;4.682;2023-03-21T15:37:57;101282.44;;;19.21
64947;BMP280;51469;52.150;4.682;2023-03-21T15:40:26;101272.53;;;19.40